sensor_id;sensor_type;location;lat;lon;timestamp;pressure;altitude;pressure_sealevel;temperature;humidity
70027;BME280;57506;50.092;15.804;2022-12-07T00:00:49;98800.09;;;2.59;100.00
70027;BME280;57506;50.092;15.804;2022-12-07T00:03:14;98791.59;;;2.55;100.00
70027;BME280;57506;50.092;15.804;2022-12-07T00:05:40;98779.72;;;2.50;100.00
70027;BME280;57506;50.092;15.804;2022-12-07T00:08:05;98798.94;;;2.61;100.00
70027;BME280;57506;50.092;15.804;2022-12-07T00:10:33;98798.72;;;2.55;100.00
70027;BME280;57506;50.092;15.804;2022-12-07T00:12:59;98804.72;;;2.57;100.00
70027;BME280;57506;50.092;15.804;2022-12-07T00:15:24;98788.16;;;2.45;100.00
70027;BME280;57506;50.092;15.804;2022-12-07T00:17:50;98772.28;;;2.35;100.00
70027;BME280;57506;50.092;15.804;2022-12-07T00:20:16;98804.34;;;2.52;100.00
70027;BME280;57506;50.092;15.804;2022-12-07T00:22:42;98799.03;;;2.52;100.00
70027;BME280;57506;50.092;15.804;2022-12-07T00:25:07;98787.31;;;2.44;100.00
70027;BME280;57506;50.092;15.804;2022-12-07T00:27:33;98788.16;;;2.45;100.00
70027;BME280;57506;50.092;15.804;2022-12-07T00:29:58;98795.13;;;2.46;100.00
70027;BME280;57506;50.092;15.804;2022-12-07T00:32:24;98783.00;;;2.43;100.00
70027;BME280;57506;50.092;15.804;2022-12-07T00:34:49;98778.13;;;2.39;100.00
70027;BME280;57506;50.092;15.804;2022-12-07T00:37:15;98798.88;;;2.53;100.00
70027;BME280;57506;50.092;15.804;2022-12-07T00:39:40;98758.59;;;2.30;100.00
70027;BME280;57506;50.092;15.804;2022-12-07T00:42:06;98778.69;;;2.42;100.00
70027;BME280;57506;50.092;15.804;2022-12-07T00:44:31;98784.28;;;2.39;100.00
70027;BME280;57506;50.092;15.804;2022-12-07T00:46:57;98790.50;;;2.48;100.00
70027;BME280;57506;50.092;15.804;2022-12-07T00:49:22;98778.13;;;2.39;100.00
70027;BME280;57506;50.092;15.804;2022-12-07T00:51:49;98784.50;;;2.46;100.00
70027;BME280;57506;50.092;15.804;2022-12-07T00:54:14;98794.00;;;2.49;100.00
70027;BME280;57506;50.092;15.804;2022-12-07T00:56:40;98792.34;;;2.47;100.00
70027;BME280;57506;50.092;15.804;2022-12-07T00:59:05;98780.66;;;2.40;100.00
70027;BME280;57506;50.092;15.804;2022-12-07T01:01:34;98795.97;;;2.46;100.00
70027;BME280;57506;50.092;15.804;2022-12-07T01:04:02;98787.94;;;2.38;100.00
70027;BME280;57506;50.092;15.804;2022-12-07T01:06:28;98793.78;;;2.42;100.00
70027;BME280;57506;50.092;15.804;2022-12-07T01:08:54;98801.94;;;2.40;100.00
70027;BME280;57506;50.092;15.804;2022-12-07T01:11:23;98813.25;;;2.42;100.00
70027;BME280;57506;50.092;15.804;2022-12-07T01:13:53;98785.56;;;2.35;100.00
70027;BME280;57506;50.092;15.804;2022-12-07T01:16:20;98791.59;;;2.37;100.00
70027;BME280;57506;50.092;15.804;2022-12-07T01:18:47;98793.09;;;2.40;100.00
70027;BME280;57506;50.092;15.804;2022-12-07T01:21:16;98792.28;;;2.39;100.00
70027;BME280;57506;50.092;15.804;2022-12-07T01:23:42;98805.09;;;2.44;100.00
70027;BME280;57506;50.092;15.804;2022-12-07T01:26:11;98800.59;;;2.44;100.00
70027;BME280;57506;50.092;15.804;2022-12-07T01:28:37;98796.47;;;2.42;100.00
70027;BME280;57506;50.092;15.804;2022-12-07T01:31:11;98801.28;;;2.46;100.00
70027;BME280;57506;50.092;15.804;2022-12-07T01:33:38;98802.44;;;2.44;100.00
70027;BME280;57506;50.092;15.804;2022-12-07T01:36:07;98807.25;;;2.40;100.00
70027;BME280;57506;50.092;15.804;2022-12-07T01:38:33;98792.03;;;2.33;100.00
70027;BME280;57506;50.092;15.804;2022-12-07T01:41:00;98795.22;;;2.36;100.00
70027;BME280;57506;50.092;15.804;2022-12-07T01:43:28;98794.94;;;2.39;100.00
70027;BME280;57506;50.092;15.804;2022-12-07T01:45:55;98795.91;;;2.38;100.00
70027;BME280;57506;50.092;15.804;2022-12-07T01:48:26;98817.25;;;2.46;100.00
70027;BME280;57506;50.092;15.804;2022-12-07T01:50:54;98805.09;;;2.44;100.00
70027;BME280;57506;50.092;15.804;2022-12-07T01:53:21;98816.28;;;2.47;100.00
70027;BME280;57506;50.092;15.804;2022-12-07T01:55:52;98796.06;;;2.37;100.00
70027;BME280;57506;50.092;15.804;2022-12-07T01:58:18;98802.22;;;2.37;100.00
70027;BME280;57506;50.092;15.804;2022-12-07T02:00:44;98814.59;;;2.46;100.00
70027;BME280;57506;50.092;15.804;2022-12-07T02:03:47;98813.06;;;2.44;100.00
70027;BME280;57506;50.092;15.804;2022-12-07T02:06:19;98812.09;;;2.45;100.00
70027;BME280;57506;50.092;15.804;2022-12-07T02:08:46;98811.94;;;2.46;100.00
70027;BME280;57506;50.092;15.804;2022-12-07T02:11:12;98807.09;;;2.42;100.00
70027;BME280;57506;50.092;15.804;2022-12-07T02:13:39;98813.91;;;2.44;100.00
70027;BME280;57506;50.092;15.804;2022-12-07T02:29:39;98807.25;;;2.40;100.00
70027;BME280;57506;50.092;15.804;2022-12-07T02:43:33;98797.28;;;2.42;100.00
70027;BME280;57506;50.092;15.804;2022-12-07T02:46:25;98799.63;;;2.45;100.00
70027;BME280;57506;50.092;15.804;2022-12-07T02:48:53;98791.59;;;2.37;100.00
70027;BME280;57506;50.092;15.804;2022-12-07T02:51:21;98788.34;;;2.43;100.00
70027;BME280;57506;50.092;15.804;2022-12-07T02:53:46;98789.81;;;2.46;100.00
70027;BME280;57506;50.092;15.804;2022-12-07T02:56:22;98796.81;;;2.47;100.00
70027;BME280;57506;50.092;15.804;2022-12-07T03:12:32;98789.38;;;2.68;100.00
70027;BME280;57506;50.092;15.804;2022-12-07T03:15:14;98773.31;;;2.60;100.00
70027;BME280;57506;50.092;15.804;2022-12-07T03:17:44;98788.00;;;2.64;100.00
70027;BME280;57506;50.092;15.804;2022-12-07T03:20:13;98770.00;;;2.40;100.00
70027;BME280;57506;50.092;15.804;2022-12-07T03:22:42;98764.31;;;2.35;100.00
70027;BME280;57506;50.092;15.804;2022-12-07T03:25:11;98766.81;;;2.55;100.00
70027;BME280;57506;50.092;15.804;2022-12-07T03:27:49;98767.41;;;2.49;100.00
70027;BME280;57506;50.092;15.804;2022-12-07T03:31:10;98749.56;;;2.41;100.00
70027;BME280;57506;50.092;15.804;2022-12-07T03:33:31;98755.41;;;2.44;100.00
70027;BME280;57506;50.092;15.804;2022-12-07T03:39:17;98748.19;;;2.37;100.00
70027;BME280;57506;50.092;15.804;2022-12-07T03:41:46;98735.44;;;2.40;100.00
70027;BME280;57506;50.092;15.804;2022-12-07T03:44:13;98734.59;;;2.40;100.00
70027;BME280;57506;50.092;15.804;2022-12-07T03:47:01;98744.31;;;2.49;100.00
70027;BME280;57506;50.092;15.804;2022-12-07T03:52:22;98753.66;;;2.35;100.00
70027;BME280;57506;50.092;15.804;2022-12-07T03:55:17;98728.84;;;2.27;100.00
70027;BME280;57506;50.092;15.804;2022-12-07T03:57:45;98743.03;;;2.35;100.00
70027;BME280;57506;50.092;15.804;2022-12-07T04:00:13;98749.03;;;2.37;100.00
70027;BME280;57506;50.092;15.804;2022-12-07T04:02:38;98738.16;;;2.31;100.00
70027;BME280;57506;50.092;15.804;2022-12-07T04:05:05;98744.72;;;2.36;100.00
70027;BME280;57506;50.092;15.804;2022-12-07T04:07:31;98748.19;;;2.37;100.00
70027;BME280;57506;50.092;15.804;2022-12-07T04:09:57;98736.34;;;2.31;100.00
70027;BME280;57506;50.092;15.804;2022-12-07T04:12:22;98737.03;;;2.33;100.00
70027;BME280;57506;50.092;15.804;2022-12-07T04:14:48;98723.06;;;2.31;100.00
70027;BME280;57506;50.092;15.804;2022-12-07T04:17:14;98741.75;;;2.39;100.00
70027;BME280;57506;50.092;15.804;2022-12-07T04:19:39;98737.13;;;2.41;100.00
70027;BME280;57506;50.092;15.804;2022-12-07T04:22:05;98728.50;;;2.47;100.00
70027;BME280;57506;50.092;15.804;2022-12-07T04:24:31;98735.19;;;2.52;100.00
70027;BME280;57506;50.092;15.804;2022-12-07T04:26:57;98736.34;;;2.49;100.00
70027;BME280;57506;50.092;15.804;2022-12-07T04:29:23;98737.09;;;2.59;100.00
70027;BME280;57506;50.092;15.804;2022-12-07T04:31:49;98748.19;;;2.55;100.00
70027;BME280;57506;50.092;15.804;2022-12-07T04:34:15;98737.25;;;2.40;100.00
70027;BME280;57506;50.092;15.804;2022-12-07T04:36:41;98744.09;;;2.42;100.00
70027;BME280;57506;50.092;15.804;2022-12-07T04:39:09;98747.41;;;2.44;100.00
70027;BME280;57506;50.092;15.804;2022-12-07T04:41:38;98727.91;;;2.36;100.00
70027;BME280;57506;50.092;15.804;2022-12-07T04:44:04;98745.28;;;2.48;100.00
70027;BME280;57506;50.092;15.804;2022-12-07T04:46:33;98740.81;;;2.49;100.00
70027;BME280;57506;50.092;15.804;2022-12-07T04:48:58;98747.50;;;2.53;100.00
70027;BME280;57506;50.092;15.804;2022-12-07T04:51:26;98745.53;;;2.55;100.00
70027;BME280;57506;50.092;15.804;2022-12-07T04:53:53;98744.84;;;2.53;100.00
70027;BME280;57506;50.092;15.804;2022-12-07T04:56:19;98742.50;;;2.50;100.00
70027;BME280;57506;50.092;15.804;2022-12-07T04:58:46;98745.16;;;2.50;100.00
70027;BME280;57506;50.092;15.804;2022-12-07T05:01:12;98728.31;;;2.41;100.00
70027;BME280;57506;50.092;15.804;2022-12-07T05:03:38;98750.75;;;2.46;100.00
70027;BME280;57506;50.092;15.804;2022-12-07T05:06:04;98738.09;;;2.40;100.00
70027;BME280;57506;50.092;15.804;2022-12-07T05:08:31;98742.34;;;2.51;100.00
70027;BME280;57506;50.092;15.804;2022-12-07T05:10:57;98736.72;;;2.36;100.00
70027;BME280;57506;50.092;15.804;2022-12-07T05:13:22;98751.75;;;2.45;100.00
70027;BME280;57506;50.092;15.804;2022-12-07T05:15:48;98737.63;;;2.45;100.00
70027;BME280;57506;50.092;15.804;2022-12-07T05:18:14;98740.13;;;2.46;100.00
70027;BME280;57506;50.092;15.804;2022-12-07T05:20:40;98742.50;;;2.50;100.00
70027;BME280;57506;50.092;15.804;2022-12-07T05:23:06;98741.44;;;2.42;100.00
70027;BME280;57506;50.092;15.804;2022-12-07T05:25:32;98749.78;;;2.47;100.00
70027;BME280;57506;50.092;15.804;2022-12-07T05:27:57;98737.81;;;2.43;100.00
70027;BME280;57506;50.092;15.804;2022-12-07T05:30:24;98747.59;;;2.43;100.00
70027;BME280;57506;50.092;15.804;2022-12-07T05:32:50;98745.44;;;2.46;100.00
70027;BME280;57506;50.092;15.804;2022-12-07T05:35:16;98740.38;;;2.35;100.00
70027;BME280;57506;50.092;15.804;2022-12-07T05:37:42;98728.91;;;2.35;100.00
70027;BME280;57506;50.092;15.804;2022-12-07T05:40:08;98741.59;;;2.41;100.00
70027;BME280;57506;50.092;15.804;2022-12-07T05:42:34;98747.28;;;2.46;100.00
70027;BME280;57506;50.092;15.804;2022-12-07T05:44:59;98750.91;;;2.45;100.00
70027;BME280;57506;50.092;15.804;2022-12-07T05:47:25;98729.06;;;2.33;100.00
70027;BME280;57506;50.092;15.804;2022-12-07T05:49:50;98741.75;;;2.39;100.00
70027;BME280;57506;50.092;15.804;2022-12-07T05:52:16;98739.44;;;2.44;100.00
70027;BME280;57506;50.092;15.804;2022-12-07T05:54:42;98730.03;;;2.32;100.00
70027;BME280;57506;50.092;15.804;2022-12-07T05:57:07;98723.34;;;2.28;100.00
70027;BME280;57506;50.092;15.804;2022-12-07T05:59:33;98721.31;;;2.40;100.00
70027;BME280;57506;50.092;15.804;2022-12-07T06:01:59;98731.81;;;2.41;100.00
70027;BME280;57506;50.092;15.804;2022-12-07T06:04:28;98726.53;;;2.50;100.00
70027;BME280;57506;50.092;15.804;2022-12-07T06:06:54;98728.72;;;2.54;100.00
70027;BME280;57506;50.092;15.804;2022-12-07T06:09:21;98740.91;;;2.57;100.00
70027;BME280;57506;50.092;15.804;2022-12-07T06:11:47;98717.34;;;2.44;100.00
70027;BME280;57506;50.092;15.804;2022-12-07T06:14:31;98723.50;;;2.44;100.00
70027;BME280;57506;50.092;15.804;2022-12-07T06:16:58;98721.50;;;2.46;100.00
70027;BME280;57506;50.092;15.804;2022-12-07T06:19:24;98724.03;;;2.48;100.00
70027;BME280;57506;50.092;15.804;2022-12-07T06:21:49;98710.81;;;2.38;100.00
70027;BME280;57506;50.092;15.804;2022-12-07T06:24:16;98732.09;;;2.56;100.00
70027;BME280;57506;50.092;15.804;2022-12-07T06:26:42;98719.63;;;2.39;100.00
70027;BME280;57506;50.092;15.804;2022-12-07T06:29:08;98732.25;;;2.37;100.00
70027;BME280;57506;50.092;15.804;2022-12-07T06:31:35;98717.53;;;2.25;100.00
70027;BME280;57506;50.092;15.804;2022-12-07T06:34:02;98720.88;;;2.27;100.00
70027;BME280;57506;50.092;15.804;2022-12-07T06:36:29;98734.97;;;2.45;100.00
70027;BME280;57506;50.092;15.804;2022-12-07T06:38:55;98736.88;;;2.35;100.00
70027;BME280;57506;50.092;15.804;2022-12-07T06:41:21;98723.44;;;2.36;100.00
70027;BME280;57506;50.092;15.804;2022-12-07T06:43:47;98733.78;;;2.39;100.00
70027;BME280;57506;50.092;15.804;2022-12-07T06:46:14;98740.47;;;2.26;100.00
70027;BME280;57506;50.092;15.804;2022-12-07T06:48:40;98744.94;;;2.43;100.00
70027;BME280;57506;50.092;15.804;2022-12-07T06:51:06;98737.34;;;2.30;100.00
70027;BME280;57506;50.092;15.804;2022-12-07T06:53:31;98722.84;;;2.25;100.00
70027;BME280;57506;50.092;15.804;2022-12-07T06:55:57;98740.63;;;2.42;100.00
70027;BME280;57506;50.092;15.804;2022-12-07T06:58:23;98740.47;;;2.43;100.00
70027;BME280;57506;50.092;15.804;2022-12-07T07:00:49;98729.75;;;2.35;100.00
70027;BME280;57506;50.092;15.804;2022-12-07T07:03:17;98735.66;;;2.29;100.00
70027;BME280;57506;50.092;15.804;2022-12-07T07:05:43;98738.09;;;2.40;100.00
70027;BME280;57506;50.092;15.804;2022-12-07T07:08:10;98723.59;;;2.35;100.00
70027;BME280;57506;50.092;15.804;2022-12-07T07:10:36;98744.63;;;2.46;100.00
70027;BME280;57506;50.092;15.804;2022-12-07T07:13:01;98748.09;;;2.46;100.00
70027;BME280;57506;50.092;15.804;2022-12-07T07:15:27;98733.13;;;2.45;100.00
70027;BME280;57506;50.092;15.804;2022-12-07T07:17:53;98744.63;;;2.46;100.00
70027;BME280;57506;50.092;15.804;2022-12-07T07:20:19;98752.00;;;2.52;100.00
70027;BME280;57506;50.092;15.804;2022-12-07T07:22:44;98746.59;;;2.44;100.00
70027;BME280;57506;50.092;15.804;2022-12-07T07:25:10;98740.91;;;2.39;100.00
70027;BME280;57506;50.092;15.804;2022-12-07T07:27:35;98745.41;;;2.38;100.00
70027;BME280;57506;50.092;15.804;2022-12-07T07:30:01;98752.09;;;2.42;100.00
70027;BME280;57506;50.092;15.804;2022-12-07T07:32:26;98770.69;;;2.42;100.00
70027;BME280;57506;50.092;15.804;2022-12-07T07:34:52;98767.25;;;2.50;100.00
70027;BME280;57506;50.092;15.804;2022-12-07T07:37:17;98752.59;;;2.46;100.00
70027;BME280;57506;50.092;15.804;2022-12-07T07:39:43;98765.44;;;2.51;100.00
70027;BME280;57506;50.092;15.804;2022-12-07T07:42:08;98773.94;;;2.54;100.00
70027;BME280;57506;50.092;15.804;2022-12-07T07:44:34;98767.09;;;2.52;100.00
70027;BME280;57506;50.092;15.804;2022-12-07T07:47:00;98767.50;;;2.57;100.00
70027;BME280;57506;50.092;15.804;2022-12-07T07:49:26;98782.13;;;2.61;100.00
70027;BME280;57506;50.092;15.804;2022-12-07T07:51:52;98777.84;;;2.60;100.00
70027;BME280;57506;50.092;15.804;2022-12-07T07:54:17;98764.91;;;2.47;100.00
70027;BME280;57506;50.092;15.804;2022-12-07T07:56:43;98785.97;;;2.58;100.00
70027;BME280;57506;50.092;15.804;2022-12-07T07:59:08;98774.69;;;2.46;100.00
70027;BME280;57506;50.092;15.804;2022-12-07T08:01:34;98791.72;;;2.54;100.00
70027;BME280;57506;50.092;15.804;2022-12-07T08:04:00;98796.66;;;2.49;100.00
70027;BME280;57506;50.092;15.804;2022-12-07T08:06:26;98799.03;;;2.52;100.00
70027;BME280;57506;50.092;15.804;2022-12-07T08:08:52;98801.97;;;2.49;100.00
70027;BME280;57506;50.092;15.804;2022-12-07T08:11:17;98795.13;;;2.46;100.00
70027;BME280;57506;50.092;15.804;2022-12-07T08:13:45;98792.34;;;2.47;100.00
70027;BME280;57506;50.092;15.804;2022-12-07T08:16:12;98777.22;;;2.30;100.00
70027;BME280;57506;50.092;15.804;2022-12-07T08:18:39;98801.63;;;2.43;100.00
70027;BME280;57506;50.092;15.804;2022-12-07T08:21:06;98802.97;;;2.47;100.00
70027;BME280;57506;50.092;15.804;2022-12-07T08:23:32;98799.13;;;2.42;100.00
70027;BME280;57506;50.092;15.804;2022-12-07T08:26:08;98806.94;;;2.43;100.00
70027;BME280;57506;50.092;15.804;2022-12-07T08:28:34;98800.31;;;2.47;100.00
70027;BME280;57506;50.092;15.804;2022-12-07T08:31:06;98807.69;;;2.54;100.00
70027;BME280;57506;50.092;15.804;2022-12-07T08:33:33;98808.22;;;2.57;100.00
70027;BME280;57506;50.092;15.804;2022-12-07T08:36:10;98816.22;;;2.57;100.00
70027;BME280;57506;50.092;15.804;2022-12-07T08:38:37;98802.91;;;2.57;100.00
70027;BME280;57506;50.092;15.804;2022-12-07T08:41:03;98809.28;;;2.64;100.00
70027;BME280;57506;50.092;15.804;2022-12-07T08:43:29;98785.72;;;2.52;100.00
70027;BME280;57506;50.092;15.804;2022-12-07T08:48:26;98797.88;;;2.72;100.00
70027;BME280;57506;50.092;15.804;2022-12-07T08:50:51;98796.78;;;2.83;100.00
70027;BME280;57506;50.092;15.804;2022-12-07T08:53:17;98792.31;;;2.83;100.00
70027;BME280;57506;50.092;15.804;2022-12-07T08:55:46;98793.38;;;2.90;100.00
70027;BME280;57506;50.092;15.804;2022-12-07T08:58:12;98793.00;;;3.11;100.00
70027;BME280;57506;50.092;15.804;2022-12-07T09:00:38;98812.41;;;3.29;100.00
70027;BME280;57506;50.092;15.804;2022-12-07T09:03:03;98816.75;;;3.30;100.00
70027;BME280;57506;50.092;15.804;2022-12-07T09:05:29;98810.88;;;3.19;100.00
70027;BME280;57506;50.092;15.804;2022-12-07T09:07:57;98798.09;;;3.22;100.00
70027;BME280;57506;50.092;15.804;2022-12-07T09:10:25;98805.53;;;3.19;100.00
70027;BME280;57506;50.092;15.804;2022-12-07T09:12:51;98811.69;;;3.19;100.00
70027;BME280;57506;50.092;15.804;2022-12-07T09:15:16;98801.31;;;3.08;100.00
70027;BME280;57506;50.092;15.804;2022-12-07T09:17:42;98794.50;;;3.13;100.00
70027;BME280;57506;50.092;15.804;2022-12-07T09:20:08;98802.56;;;3.22;100.00
70027;BME280;57506;50.092;15.804;2022-12-07T09:22:34;98810.28;;;3.33;100.00
70027;BME280;57506;50.092;15.804;2022-12-07T09:25:00;98786.31;;;3.33;100.00
70027;BME280;57506;50.092;15.804;2022-12-07T09:27:26;98785.78;;;3.29;100.00
70027;BME280;57506;50.092;15.804;2022-12-07T09:29:52;98788.13;;;3.24;100.00
70027;BME280;57506;50.092;15.804;2022-12-07T09:32:18;98778.03;;;3.36;100.00
70027;BME280;57506;50.092;15.804;2022-12-07T09:34:44;98775.97;;;3.64;100.00
70027;BME280;57506;50.092;15.804;2022-12-07T09:37:09;98779.03;;;3.77;100.00
70027;BME280;57506;50.092;15.804;2022-12-07T09:39:38;98774.50;;;3.69;100.00
70027;BME280;57506;50.092;15.804;2022-12-07T09:42:05;98783.19;;;3.79;100.00
70027;BME280;57506;50.092;15.804;2022-12-07T09:44:32;98775.56;;;3.93;100.00
70027;BME280;57506;50.092;15.804;2022-12-07T09:46:58;98765.63;;;4.03;100.00
70027;BME280;57506;50.092;15.804;2022-12-07T09:49:27;98775.63;;;4.09;100.00
70027;BME280;57506;50.092;15.804;2022-12-07T09:54:38;98767.63;;;4.01;100.00
70027;BME280;57506;50.092;15.804;2022-12-07T09:57:08;98765.47;;;4.04;100.00
70027;BME280;57506;50.092;15.804;2022-12-07T09:59:34;98756.25;;;3.91;100.00
70027;BME280;57506;50.092;15.804;2022-12-07T10:02:22;98778.06;;;3.86;100.00
70027;BME280;57506;50.092;15.804;2022-12-07T10:04:48;98775.66;;;3.67;100.00
70027;BME280;57506;50.092;15.804;2022-12-07T10:07:14;98768.63;;;3.58;100.00
70027;BME280;57506;50.092;15.804;2022-12-07T10:09:39;98771.41;;;3.48;100.00
70027;BME280;57506;50.092;15.804;2022-12-07T10:12:10;98783.13;;;3.55;100.00
70027;BME280;57506;50.092;15.804;2022-12-07T10:14:59;98774.91;;;3.48;100.00
70027;BME280;57506;50.092;15.804;2022-12-07T10:17:39;98765.06;;;3.41;100.00
70027;BME280;57506;50.092;15.804;2022-12-07T10:22:37;98757.63;;;3.27;100.00
70027;BME280;57506;50.092;15.804;2022-12-07T10:25:18;98754.97;;;3.27;100.00
70027;BME280;57506;50.092;15.804;2022-12-07T10:28:00;98745.69;;;3.31;100.00
70027;BME280;57506;50.092;15.804;2022-12-07T10:30:26;98741.16;;;3.23;100.00
70027;BME280;57506;50.092;15.804;2022-12-07T10:32:52;98745.69;;;3.31;100.00
70027;BME280;57506;50.092;15.804;2022-12-07T10:35:18;98747.94;;;3.17;100.00
70027;BME280;57506;50.092;15.804;2022-12-07T10:37:45;98755.88;;;3.09;100.00
70027;BME280;57506;50.092;15.804;2022-12-07T10:40:33;98749.91;;;3.07;100.00
70027;BME280;57506;50.092;15.804;2022-12-07T10:45:32;98752.81;;;2.96;100.00
70027;BME280;57506;50.092;15.804;2022-12-07T10:50:32;98754.44;;;2.89;100.00
70027;BME280;57506;50.092;15.804;2022-12-07T10:53:28;98751.97;;;2.96;100.00
70027;BME280;57506;50.092;15.804;2022-12-07T10:56:39;98735.53;;;3.00;100.00
70027;BME280;57506;50.092;15.804;2022-12-07T11:07:49;98733.19;;;2.71;100.00
70027;BME280;57506;50.092;15.804;2022-12-07T11:10:47;98729.00;;;2.43;100.00
70027;BME280;57506;50.092;15.804;2022-12-07T11:13:21;98735.19;;;2.52;100.00
70027;BME280;57506;50.092;15.804;2022-12-07T11:15:59;98729.88;;;2.52;100.00
70027;BME280;57506;50.092;15.804;2022-12-07T11:24:10;98715.69;;;2.95;100.00
70027;BME280;57506;50.092;15.804;2022-12-07T11:29:56;98730.78;;;2.86;100.00
70027;BME280;57506;50.092;15.804;2022-12-07T11:32:34;98725.09;;;2.81;100.00
70027;BME280;57506;50.092;15.804;2022-12-07T11:36:29;98715.81;;;2.85;100.00
70027;BME280;57506;50.092;15.804;2022-12-07T11:38:22;98694.56;;;2.93;100.00
70027;BME280;57506;50.092;15.804;2022-12-07T11:40:49;98709.31;;;3.13;100.00
70027;BME280;57506;50.092;15.804;2022-12-07T11:43:24;98708.38;;;3.23;100.00
70027;BME280;57506;50.092;15.804;2022-12-07T11:46:11;98696.91;;;3.30;100.00
70027;BME280;57506;50.092;15.804;2022-12-07T11:48:41;98698.28;;;3.42;100.00
70027;BME280;57506;50.092;15.804;2022-12-07T11:51:11;98712.03;;;3.56;100.00
70027;BME280;57506;50.092;15.804;2022-12-07T11:53:45;98696.50;;;3.51;100.00
70027;BME280;57506;50.092;15.804;2022-12-07T11:56:17;98710.50;;;3.53;100.00
70027;BME280;57506;50.092;15.804;2022-12-07T12:06:39;98705.66;;;3.48;100.00
70027;BME280;57506;50.092;15.804;2022-12-07T12:20:35;98704.75;;;3.82;100.00
70027;BME280;57506;50.092;15.804;2022-12-07T12:23:16;98699.91;;;3.77;100.00
70027;BME280;57506;50.092;15.804;2022-12-07T12:33:56;98693.41;;;3.72;100.00
70027;BME280;57506;50.092;15.804;2022-12-07T12:36:24;98696.09;;;3.80;100.00
70027;BME280;57506;50.092;15.804;2022-12-07T12:44:37;98690.91;;;3.70;100.00
70027;BME280;57506;50.092;15.804;2022-12-07T12:46:55;98697.25;;;3.77;100.00
70027;BME280;57506;50.092;15.804;2022-12-07T12:55:12;98699.78;;;3.87;100.00
70027;BME280;57506;50.092;15.804;2022-12-07T12:57:39;98691.75;;;3.79;100.00
70027;BME280;57506;50.092;15.804;2022-12-07T13:00:22;98695.13;;;3.89;100.00
70027;BME280;57506;50.092;15.804;2022-12-07T13:02:53;98691.63;;;3.89;100.00
70027;BME280;57506;50.092;15.804;2022-12-07T13:05:25;98678.63;;;3.94;100.00
70027;BME280;57506;50.092;15.804;2022-12-07T13:07:54;98699.81;;;4.03;100.00
70027;BME280;57506;50.092;15.804;2022-12-07T13:16:36;98669.66;;;4.03;100.00
70027;BME280;57506;50.092;15.804;2022-12-07T13:18:41;98681.97;;;3.88;100.00
70027;BME280;57506;50.092;15.804;2022-12-07T13:31:34;98690.91;;;3.78;100.00
70027;BME280;57506;50.092;15.804;2022-12-07T13:34:02;98680.25;;;3.78;100.00
70027;BME280;57506;50.092;15.804;2022-12-07T13:36:34;98690.41;;;3.67;100.00
70027;BME280;57506;50.092;15.804;2022-12-07T13:41:42;98696.56;;;3.67;100.00
70027;BME280;57506;50.092;15.804;2022-12-07T13:44:13;98686.91;;;3.66;100.00
70027;BME280;57506;50.092;15.804;2022-12-07T13:47:00;98699.59;;;3.72;100.00
70027;BME280;57506;50.092;15.804;2022-12-07T13:49:30;98678.38;;;3.55;100.00
70027;BME280;57506;50.092;15.804;2022-12-07T13:52:17;98690.19;;;3.60;100.00
70027;BME280;57506;50.092;15.804;2022-12-07T13:57:30;98697.09;;;3.79;100.00
70027;BME280;57506;50.092;15.804;2022-12-07T13:59:59;98683.91;;;3.77;100.00
70027;BME280;57506;50.092;15.804;2022-12-07T14:02:30;98691.91;;;3.77;100.00
70027;BME280;57506;50.092;15.804;2022-12-07T14:10:32;98656.28;;;3.78;100.00
70027;BME280;57506;50.092;15.804;2022-12-07T14:12:59;98674.13;;;3.86;100.00
70027;BME280;57506;50.092;15.804;2022-12-07T14:15:29;98672.78;;;3.82;100.00
70027;BME280;57506;50.092;15.804;2022-12-07T14:17:56;98656.56;;;3.59;100.00
70027;BME280;57506;50.092;15.804;2022-12-07T14:20:48;98666.84;;;3.46;100.00
70027;BME280;57506;50.092;15.804;2022-12-07T14:23:32;98667.50;;;3.40;100.00
70027;BME280;57506;50.092;15.804;2022-12-07T14:26:13;98673.31;;;3.35;100.00
70027;BME280;57506;50.092;15.804;2022-12-07T14:28:40;98668.59;;;3.21;100.00
70027;BME280;57506;50.092;15.804;2022-12-07T14:31:24;98664.19;;;3.04;100.00
70027;BME280;57506;50.092;15.804;2022-12-07T14:33:50;98671.38;;;3.11;100.00
70027;BME280;57506;50.092;15.804;2022-12-07T14:36:15;98663.81;;;2.99;100.00
70027;BME280;57506;50.092;15.804;2022-12-07T14:38:41;98675.69;;;3.12;100.00
70027;BME280;57506;50.092;15.804;2022-12-07T14:41:13;98674.81;;;3.38;100.00
70027;BME280;57506;50.092;15.804;2022-12-07T14:43:59;98670.44;;;3.21;100.00
70027;BME280;57506;50.092;15.804;2022-12-07T14:46:25;98665.38;;;3.09;100.00
70027;BME280;57506;50.092;15.804;2022-12-07T14:48:50;98674.00;;;3.37;100.00
70027;BME280;57506;50.092;15.804;2022-12-07T14:51:16;98665.84;;;3.39;100.00
70027;BME280;57506;50.092;15.804;2022-12-07T14:53:50;98651.16;;;3.35;100.00
70027;BME280;57506;50.092;15.804;2022-12-07T14:56:17;98651.84;;;3.37;100.00
70027;BME280;57506;50.092;15.804;2022-12-07T14:58:42;98652.03;;;3.43;100.00
70027;BME280;57506;50.092;15.804;2022-12-07T15:01:08;98641.88;;;3.39;100.00
70027;BME280;57506;50.092;15.804;2022-12-07T15:03:33;98637.53;;;3.38;100.00
70027;BME280;57506;50.092;15.804;2022-12-07T15:06:00;98649.75;;;3.57;100.00
70027;BME280;57506;50.092;15.804;2022-12-07T15:08:26;98641.38;;;3.43;100.00
70027;BME280;57506;50.092;15.804;2022-12-07T15:10:51;98644.91;;;3.52;100.00
70027;BME280;57506;50.092;15.804;2022-12-07T15:13:17;98653.88;;;3.51;100.00
70027;BME280;57506;50.092;15.804;2022-12-07T15:16:01;98657.22;;;3.53;100.00
70027;BME280;57506;50.092;15.804;2022-12-07T15:18:27;98664.22;;;3.54;100.00
70027;BME280;57506;50.092;15.804;2022-12-07T15:20:52;98641.72;;;3.40;100.00